Google Maps JavaScript API Example
Pilot Flight Report # 91295 Submitted by : AST003 on 2018-05-15
Date: 2018-05-15Aircraft: DeHavilland DHC6 Twin Otter - Wheeled
Flight No.: AST12277Distance (Nm): 102.39
Departure: EDDF - Frankfurt/MainDestination: EDDN - Nurnberg
 TimeFuelWeightSpeeds  
Out (Taxi)0440Z1454 lbs10234 lbs Flight RulesIFR
Off (Takeoff)0442Z 10225 lbs93 ktsFlight Level4500
On (Landing)0522Z 9732 lbs56 ktsVSTD-137 ft/min
In (Ramp)0522Z951 lbs9732 lbs ZFW8784 lbs
Flight0.70  -  0:40489 lbs  Pax0
Block0.70  -  0:42503 lbs  Cargo0
Departure WeatherEDDF 150439Z 14904KT 29SM SKC 13/11 A2991
Destination WeatherEDDN 150522Z 32804KT 25SM SCT268 12/10 A2988
Flight Comments